createdAt,value
2023-10-26T00:00:34.937Z,91.27
2023-10-26T00:03:01.791Z,91.33
2023-10-26T00:05:28.436Z,91.29
2023-10-26T00:07:54.874Z,91.23
2023-10-26T00:10:21.296Z,91.79
2023-10-26T00:12:47.738Z,91.60
2023-10-26T00:15:14.151Z,91.53
2023-10-26T00:17:40.713Z,91.66
2023-10-26T00:20:08.228Z,91.64
2023-10-26T00:22:34.703Z,91.74
2023-10-26T00:25:01.097Z,91.87
2023-10-26T00:27:28.009Z,91.93
2023-10-26T00:29:54.422Z,91.90
2023-10-26T00:32:20.884Z,92.02
2023-10-26T00:34:47.369Z,91.96
2023-10-26T00:37:13.726Z,91.96
2023-10-26T00:39:40.168Z,91.88
2023-10-26T00:42:06.598Z,92.52
2023-10-26T00:44:33.077Z,92.15
2023-10-26T00:46:59.885Z,92.04
2023-10-26T00:49:26.470Z,92.17
2023-10-26T00:51:58.160Z,91.89
2023-10-26T00:54:25.728Z,91.88
2023-10-26T00:56:52.492Z,91.94
2023-10-26T00:59:19.458Z,91.74
2023-10-26T01:01:47.150Z,92.05
2023-10-26T01:04:17.402Z,91.97
2023-10-26T01:06:45.444Z,91.84
2023-10-26T01:09:12.394Z,91.51
2023-10-26T01:11:40.349Z,91.69
2023-10-26T01:14:08.177Z,91.60
2023-10-26T01:16:35.921Z,91.65
2023-10-26T01:19:04.625Z,91.75
2023-10-26T01:21:51.000Z,91.47
2023-10-26T01:24:18.182Z,91.58
2023-10-26T01:26:44.990Z,91.53
2023-10-26T01:29:11.448Z,91.77
2023-10-26T01:31:38.085Z,91.96
2023-10-26T01:34:05.653Z,91.96
2023-10-26T01:36:32.543Z,92.04
2023-10-26T01:39:01.370Z,92.29
2023-10-26T01:41:32.756Z,92.41
2023-10-26T01:44:01.247Z,92.05
2023-10-26T01:46:27.775Z,92.32
2023-10-26T01:48:54.535Z,92.11
2023-10-26T01:51:21.083Z,92.55
2023-10-26T01:53:47.595Z,92.05
2023-10-26T01:56:14.090Z,92.41
2023-10-26T01:58:40.525Z,92.24
2023-10-26T02:01:06.920Z,91.82
2023-10-26T02:03:33.376Z,92.03
2023-10-26T02:05:59.933Z,92.37
2023-10-26T02:08:26.469Z,92.42
2023-10-26T02:10:52.913Z,92.37
2023-10-26T02:13:19.413Z,92.10
2023-10-26T02:15:45.784Z,92.09
2023-10-26T02:18:12.189Z,92.06
2023-10-26T02:20:38.645Z,91.93
2023-10-26T02:23:06.048Z,92.04
2023-10-26T02:25:32.734Z,91.81
2023-10-26T02:27:59.194Z,91.79
2023-10-26T02:30:25.727Z,91.36
2023-10-26T02:32:52.242Z,91.75
2023-10-26T02:35:21.831Z,91.58
2023-10-26T02:37:49.216Z,91.58
2023-10-26T02:40:15.631Z,91.69
2023-10-26T02:42:42.104Z,91.57
2023-10-26T02:45:09.737Z,91.62
2023-10-26T02:47:38.639Z,91.89
2023-10-26T02:50:06.873Z,91.74
2023-10-26T02:52:33.301Z,91.64
2023-10-26T02:54:59.677Z,92.02
2023-10-26T02:57:26.184Z,91.40
2023-10-26T02:59:52.682Z,91.95
2023-10-26T03:02:19.212Z,92.28
2023-10-26T03:04:45.643Z,92.26
2023-10-26T03:07:12.491Z,92.46
2023-10-26T03:09:39.041Z,92.27
2023-10-26T03:12:05.901Z,92.43
2023-10-26T03:14:32.917Z,92.34
2023-10-26T03:16:59.349Z,92.32
2023-10-26T03:19:25.884Z,92.21
2023-10-26T03:21:52.376Z,92.62
2023-10-26T03:24:18.753Z,92.59
2023-10-26T03:26:45.236Z,92.55
2023-10-26T03:29:11.747Z,92.40
2023-10-26T03:31:39.154Z,92.01
2023-10-26T03:34:05.624Z,92.30
2023-10-26T03:36:32.805Z,92.25
2023-10-26T03:38:59.821Z,92.37
2023-10-26T03:41:26.245Z,92.19
2023-10-26T03:43:52.743Z,91.76
2023-10-26T03:46:19.342Z,92.16
2023-10-26T03:48:45.723Z,92.28
2023-10-26T03:51:12.208Z,92.17
2023-10-26T03:53:38.768Z,91.92
2023-10-26T03:56:05.755Z,92.10
2023-10-26T03:58:32.430Z,92.45
2023-10-26T04:00:59.348Z,92.32
2023-10-26T04:03:26.242Z,92.34
2023-10-26T04:05:53.919Z,92.35
2023-10-26T04:08:20.376Z,92.12
2023-10-26T04:10:46.813Z,92.18
2023-10-26T04:13:13.257Z,92.56
2023-10-26T04:15:39.675Z,92.33
2023-10-26T04:18:09.527Z,92.35
2023-10-26T04:20:36.132Z,92.38
2023-10-26T04:23:02.711Z,92.34
2023-10-26T04:25:42.394Z,92.51
2023-10-26T04:28:18.470Z,92.58
2023-10-26T04:30:48.663Z,92.29
2023-10-26T04:33:18.611Z,92.41
2023-10-26T04:35:46.535Z,92.18
2023-10-26T04:38:13.002Z,92.10
2023-10-26T04:40:40.687Z,92.30
2023-10-26T04:43:07.716Z,92.12
2023-10-26T04:45:34.552Z,92.11
2023-10-26T04:48:02.240Z,91.93
2023-10-26T04:50:31.116Z,92.12
2023-10-26T04:52:59.326Z,92.07
2023-10-26T04:55:31.289Z,92.08
2023-10-26T04:57:57.921Z,92.13
2023-10-26T05:00:24.526Z,91.93
2023-10-26T05:02:50.903Z,92.39
2023-10-26T05:05:17.330Z,92.24
2023-10-26T05:07:43.890Z,92.06
2023-10-26T05:10:10.419Z,92.01
2023-10-26T05:12:36.940Z,92.32
2023-10-26T05:15:05.169Z,92.10
2023-10-26T05:17:32.597Z,91.63
2023-10-26T05:19:59.042Z,92.38
2023-10-26T05:22:25.521Z,92.37
2023-10-26T05:24:51.937Z,91.92
2023-10-26T05:27:19.891Z,92.35
2023-10-26T05:29:46.304Z,92.01
2023-10-26T05:32:12.685Z,92.14
2023-10-26T05:34:39.112Z,92.29
2023-10-26T05:37:05.501Z,92.57
2023-10-26T05:39:33.229Z,92.49
2023-10-26T05:41:59.964Z,92.39
2023-10-26T05:44:26.445Z,92.25
2023-10-26T05:46:53.069Z,92.27
2023-10-26T05:49:19.448Z,92.50
2023-10-26T05:51:45.836Z,92.22
2023-10-26T05:54:12.346Z,92.55
2023-10-26T05:56:38.844Z,92.26
2023-10-26T05:59:06.076Z,92.21
2023-10-26T06:01:33.129Z,92.23
2023-10-26T06:03:59.819Z,92.15
2023-10-26T06:06:26.315Z,92.15
2023-10-26T06:08:55.490Z,92.01
2023-10-26T06:11:21.940Z,92.12
2023-10-26T06:13:49.606Z,92.41
2023-10-26T06:16:17.248Z,92.43
2023-10-26T06:18:44.029Z,92.21
2023-10-26T06:21:10.628Z,92.45
2023-10-26T06:23:37.156Z,92.42
2023-10-26T06:26:04.747Z,92.28
2023-10-26T06:28:31.548Z,92.52
2023-10-26T06:31:09.444Z,92.26
2023-10-26T06:33:36.086Z,92.43
2023-10-26T06:36:03.889Z,92.38
2023-10-26T06:38:30.486Z,92.49
2023-10-26T06:40:57.020Z,92.52
2023-10-26T06:43:26.924Z,92.57
2023-10-26T06:45:53.467Z,92.19
2023-10-26T06:48:20.666Z,92.36
2023-10-26T06:50:50.313Z,92.39
2023-10-26T06:53:16.844Z,92.28
2023-10-26T06:55:43.950Z,92.25
2023-10-26T06:58:10.381Z,92.28
2023-10-26T07:00:36.865Z,92.02
2023-10-26T07:03:04.125Z,92.21
2023-10-26T07:05:30.764Z,92.37
2023-10-26T07:08:00.623Z,91.90
2023-10-26T07:10:27.574Z,91.95
2023-10-26T07:12:54.039Z,92.07
2023-10-26T07:15:20.564Z,92.28
2023-10-26T07:17:47.148Z,92.04
2023-10-26T07:20:16.411Z,92.08
2023-10-26T07:22:46.278Z,91.99
2023-10-26T07:25:12.830Z,92.05
2023-10-26T07:27:39.992Z,92.14
2023-10-26T07:30:07.562Z,92.18
2023-10-26T07:32:34.058Z,92.31
2023-10-26T07:35:02.378Z,92.00
2023-10-26T07:37:29.382Z,91.92
2023-10-26T07:40:25.682Z,91.99
2023-10-26T07:42:42.217Z,92.04
2023-10-26T07:45:08.997Z,92.18
2023-10-26T07:47:35.505Z,91.97
2023-10-26T07:50:02.468Z,91.65
2023-10-26T07:52:28.918Z,91.88
2023-10-26T07:54:55.377Z,91.72
2023-10-26T07:57:21.870Z,91.77
2023-10-26T07:59:48.314Z,91.63
2023-10-26T08:02:14.989Z,91.89
2023-10-26T08:04:41.650Z,91.46
2023-10-26T08:07:09.335Z,91.05
2023-10-26T08:09:35.793Z,91.11
2023-10-26T08:12:02.570Z,91.24
2023-10-26T08:16:30.932Z,91.45
2023-10-26T08:17:18.304Z,91.33
2023-10-26T08:19:44.804Z,91.37
2023-10-26T08:22:11.772Z,91.48
2023-10-26T08:24:38.740Z,91.41
2023-10-26T08:27:05.288Z,91.49
2023-10-26T08:29:32.700Z,91.14
2023-10-26T08:31:59.516Z,90.92
2023-10-26T08:34:27.502Z,90.94
2023-10-26T08:37:11.495Z,91.21
2023-10-26T08:39:40.078Z,91.37
2023-10-26T08:42:06.686Z,91.13
2023-10-26T08:44:33.435Z,90.89
2023-10-26T08:47:04.009Z,90.91
2023-10-26T08:49:31.708Z,91.22
2023-10-26T08:51:59.215Z,91.12
2023-10-26T08:54:27.344Z,91.05
2023-10-26T08:56:54.286Z,91.16
2023-10-26T08:59:22.434Z,90.94
2023-10-26T09:01:49.391Z,90.56
2023-10-26T09:04:16.895Z,90.97
2023-10-26T09:06:47.355Z,91.04
2023-10-26T09:09:17.286Z,90.98
2023-10-26T09:11:47.891Z,91.03
2023-10-26T09:14:21.841Z,91.05
2023-10-26T09:16:49.784Z,91.10
2023-10-26T09:19:18.917Z,90.83
2023-10-26T09:21:58.867Z,91.10
2023-10-26T09:24:27.786Z,90.77
2023-10-26T09:26:55.469Z,90.96
2023-10-26T09:29:22.688Z,91.17
2023-10-26T09:31:56.050Z,90.98
2023-10-26T09:34:26.190Z,91.10
2023-10-26T09:37:05.761Z,91.25
2023-10-26T09:39:37.774Z,91.36
2023-10-26T09:42:07.770Z,91.45
2023-10-26T09:44:34.909Z,91.35
2023-10-26T09:47:01.630Z,90.83
2023-10-26T09:49:28.489Z,91.34
2023-10-26T09:51:55.311Z,91.07
2023-10-26T09:54:25.584Z,90.97
2023-10-26T09:57:02.698Z,90.91
2023-10-26T09:59:29.878Z,90.79
2023-10-26T10:01:56.483Z,90.90
2023-10-26T10:04:38.908Z,90.52
2023-10-26T10:07:06.236Z,90.25
2023-10-26T10:09:33.376Z,90.37
2023-10-26T10:12:25.834Z,90.34
2023-10-26T10:15:15.566Z,90.62
2023-10-26T10:17:45.309Z,90.50
2023-10-26T10:20:14.788Z,90.49
2023-10-26T10:22:41.443Z,90.31
2023-10-26T10:25:11.512Z,90.84
2023-10-26T10:27:39.078Z,90.37
2023-10-26T10:30:09.098Z,90.24
2023-10-26T10:32:44.694Z,89.85
2023-10-26T10:35:23.763Z,90.32
2023-10-26T10:38:15.314Z,90.12
2023-10-26T10:41:09.584Z,89.80
2023-10-26T10:43:46.780Z,90.21
2023-10-26T10:46:15.943Z,89.57
2023-10-26T10:49:05.607Z,89.32
2023-10-26T10:51:39.618Z,89.49
2023-10-26T10:54:27.055Z,89.54
2023-10-26T10:56:59.057Z,89.42
2023-10-26T10:59:27.094Z,89.43
2023-10-26T11:02:15.660Z,89.58
2023-10-26T11:04:59.521Z,89.83
2023-10-26T11:07:27.473Z,89.89
2023-10-26T11:09:58.381Z,89.82
2023-10-26T11:12:25.132Z,89.92
2023-10-26T11:14:53.776Z,89.87
2023-10-26T11:17:21.140Z,89.52
2023-10-26T11:19:48.660Z,89.75
2023-10-26T11:22:16.228Z,89.71
2023-10-26T11:24:43.955Z,89.04
2023-10-26T11:27:11.493Z,89.65
2023-10-26T11:29:38.933Z,89.37
2023-10-26T11:32:26.424Z,89.39
2023-10-26T11:35:07.150Z,89.56
2023-10-26T11:37:38.380Z,89.63
2023-10-26T11:40:06.196Z,89.64
2023-10-26T11:42:47.692Z,89.51
2023-10-26T11:45:18.664Z,89.16
2023-10-26T11:47:50.070Z,88.96
2023-10-26T11:50:28.070Z,89.10
2023-10-26T11:52:56.397Z,89.02
2023-10-26T11:55:24.029Z,89.13
2023-10-26T11:57:51.658Z,89.55
2023-10-26T12:00:20.379Z,89.67
2023-10-26T12:02:46.937Z,89.58
2023-10-26T12:05:19.609Z,89.48
2023-10-26T12:07:47.800Z,89.22
2023-10-26T12:10:16.386Z,89.14
2023-10-26T12:12:42.902Z,89.30
2023-10-26T12:15:09.961Z,89.33
2023-10-26T12:17:36.804Z,89.37
2023-10-26T12:20:05.831Z,89.40
2023-10-26T12:22:32.644Z,89.47
2023-10-26T12:24:59.168Z,88.71
2023-10-26T12:27:25.980Z,89.26
2023-10-26T12:29:52.433Z,89.16
2023-10-26T12:32:20.891Z,89.42
2023-10-26T12:34:47.319Z,89.08
2023-10-26T12:37:13.739Z,89.06
2023-10-26T12:39:40.174Z,89.41
2023-10-26T12:42:06.637Z,89.57
2023-10-26T12:44:33.171Z,89.77
2023-10-26T12:46:59.705Z,89.64
2023-10-26T12:49:26.240Z,89.65
2023-10-26T12:51:52.851Z,89.05
2023-10-26T12:54:19.443Z,89.54
2023-10-26T12:56:45.998Z,89.29
2023-10-26T12:59:12.392Z,89.22
2023-10-26T13:01:39.136Z,89.11
2023-10-26T13:04:06.032Z,88.59
2023-10-26T13:06:37.262Z,89.03
2023-10-26T13:09:05.439Z,88.83
2023-10-26T13:11:32.783Z,88.67
2023-10-26T13:13:59.339Z,88.39
2023-10-26T13:16:26.032Z,87.79
2023-10-26T13:18:55.344Z,87.84
2023-10-26T13:21:21.774Z,88.22
2023-10-26T13:23:48.215Z,88.05
2023-10-26T13:26:14.646Z,88.08
2023-10-26T13:28:41.061Z,87.35
2023-10-26T13:31:08.068Z,87.39
2023-10-26T13:33:36.050Z,87.88
2023-10-26T13:36:03.200Z,88.05
2023-10-26T13:38:29.668Z,88.18
2023-10-26T13:40:56.650Z,87.77
2023-10-26T13:43:23.046Z,87.82
2023-10-26T13:45:49.502Z,87.96
2023-10-26T13:48:16.273Z,87.62
2023-10-26T13:50:44.777Z,87.62
2023-10-26T13:53:13.613Z,87.01
2023-10-26T13:55:40.022Z,87.04
2023-10-26T13:58:06.763Z,87.28
2023-10-26T14:00:37.302Z,87.45
2023-10-26T14:03:04.700Z,87.39
2023-10-26T14:05:32.293Z,87.38
2023-10-26T14:07:59.155Z,87.70
2023-10-26T14:10:26.359Z,87.16
2023-10-26T14:12:52.991Z,87.28
2023-10-26T14:15:19.458Z,87.24
2023-10-26T14:17:45.982Z,87.55
2023-10-26T14:20:12.483Z,87.56
2023-10-26T14:22:38.897Z,87.41
2023-10-26T14:25:05.737Z,87.95
2023-10-26T14:27:32.601Z,88.15
2023-10-26T14:29:59.004Z,87.70
2023-10-26T14:32:25.462Z,87.09
2023-10-26T14:34:51.863Z,87.64
2023-10-26T14:37:18.221Z,87.29
2023-10-26T14:39:45.985Z,86.99
2023-10-26T14:42:13.514Z,86.53
2023-10-26T14:44:40.466Z,86.60
2023-10-26T14:47:06.965Z,86.43
2023-10-26T14:49:33.996Z,86.56
2023-10-26T14:52:01.136Z,86.54
2023-10-26T14:54:27.711Z,86.72
2023-10-26T14:56:54.123Z,86.31
2023-10-26T14:59:20.771Z,86.69
2023-10-26T15:01:47.407Z,86.24
2023-10-26T15:04:13.980Z,85.39
2023-10-26T15:06:40.387Z,85.49
2023-10-26T15:09:07.150Z,86.35
2023-10-26T15:11:55.589Z,86.32
2023-10-26T15:14:23.007Z,85.91
2023-10-26T15:16:49.918Z,85.89
2023-10-26T15:19:16.400Z,86.01
2023-10-26T15:21:42.810Z,85.61
2023-10-26T15:24:09.416Z,85.70
2023-10-26T15:26:35.893Z,85.71
2023-10-26T15:29:02.572Z,85.89
2023-10-26T15:31:29.430Z,86.45
2023-10-26T15:33:58.032Z,86.65
2023-10-26T15:36:26.008Z,86.55
2023-10-26T15:38:54.931Z,87.07
2023-10-26T15:41:21.345Z,86.77
2023-10-26T15:43:47.763Z,86.91
2023-10-26T15:46:14.746Z,86.57
2023-10-26T15:49:30.960Z,86.99
2023-10-26T15:51:27.731Z,86.71
2023-10-26T15:53:54.092Z,87.25
2023-10-26T15:56:20.545Z,87.17
2023-10-26T15:58:47.716Z,86.81
2023-10-26T16:01:14.238Z,86.81
2023-10-26T16:03:40.727Z,86.66
2023-10-26T16:06:11.121Z,86.82
2023-10-26T16:08:38.772Z,86.50
2023-10-26T16:11:09.385Z,86.85
2023-10-26T16:13:35.840Z,86.66
2023-10-26T16:16:03.378Z,87.24
2023-10-26T16:18:29.872Z,87.28
2023-10-26T16:20:56.320Z,87.43
2023-10-26T16:23:24.057Z,87.37
2023-10-26T16:25:50.592Z,87.44
2023-10-26T16:28:18.411Z,87.40
2023-10-26T16:30:45.710Z,87.45
2023-10-26T16:33:13.518Z,87.67
2023-10-26T16:35:41.504Z,87.76
2023-10-26T16:38:08.131Z,87.87
2023-10-26T16:40:34.811Z,87.89
2023-10-26T16:43:02.268Z,87.72
2023-10-26T16:45:29.401Z,87.48
2023-10-26T16:47:56.457Z,87.91
2023-10-26T16:50:23.500Z,87.38
2023-10-26T16:52:50.294Z,87.77
2023-10-26T16:55:16.817Z,87.84
2023-10-26T16:57:43.364Z,87.82
2023-10-26T17:00:11.409Z,88.11
2023-10-26T17:02:38.318Z,88.00
2023-10-26T17:05:06.162Z,88.00
2023-10-26T17:07:35.170Z,87.86
2023-10-26T17:10:02.126Z,88.02
2023-10-26T17:12:28.615Z,88.17
2023-10-26T17:14:56.501Z,88.53
2023-10-26T17:17:26.632Z,88.81
2023-10-26T17:19:53.867Z,88.44
2023-10-26T17:22:20.276Z,88.40
2023-10-26T17:24:47.870Z,88.46
2023-10-26T17:27:14.578Z,88.52
2023-10-26T17:29:41.370Z,88.60
2023-10-26T17:32:07.845Z,88.54
2023-10-26T17:34:34.248Z,88.51
2023-10-26T17:37:01.275Z,88.55
2023-10-26T17:39:29.075Z,88.57
2023-10-26T17:41:55.607Z,88.61
2023-10-26T17:44:22.091Z,88.63
2023-10-26T17:46:48.634Z,88.39
2023-10-26T17:49:15.191Z,88.48
2023-10-26T17:51:41.633Z,88.49
2023-10-26T17:54:08.109Z,88.53
2023-10-26T17:56:35.381Z,88.81
2023-10-26T17:59:01.966Z,88.87
2023-10-26T18:01:29.488Z,88.77
2023-10-26T18:03:56.145Z,88.78
2023-10-26T18:06:23.542Z,88.75
2023-10-26T18:08:53.084Z,88.66
2023-10-26T18:11:19.450Z,88.40
2023-10-26T18:13:45.943Z,89.12
2023-10-26T18:16:13.497Z,88.92
2023-10-26T18:18:40.160Z,88.95
2023-10-26T18:21:08.649Z,88.73
2023-10-26T18:23:36.242Z,88.91
2023-10-26T18:26:05.370Z,88.83
2023-10-26T18:28:39.467Z,88.82
2023-10-26T18:31:09.798Z,88.75
2023-10-26T18:33:37.015Z,89.04
2023-10-26T18:36:04.780Z,88.63
2023-10-26T18:38:32.398Z,88.49
2023-10-26T18:40:59.939Z,88.67
2023-10-26T18:43:26.600Z,88.67
2023-10-26T18:46:01.595Z,88.46
2023-10-26T18:48:31.166Z,88.69
2023-10-26T18:50:57.858Z,88.75
2023-10-26T18:53:24.684Z,88.82
2023-10-26T18:55:51.579Z,88.58
2023-10-26T18:58:19.148Z,88.57
2023-10-26T19:00:46.976Z,88.63
2023-10-26T19:03:16.858Z,88.56
2023-10-26T19:05:44.252Z,88.59
2023-10-26T19:08:11.449Z,88.52
2023-10-26T19:10:39.138Z,88.69
2023-10-26T19:13:06.978Z,88.88
2023-10-26T19:15:34.411Z,88.54
2023-10-26T19:18:04.114Z,88.61
2023-10-26T19:20:33.189Z,88.72
2023-10-26T19:23:00.450Z,88.83
2023-10-26T19:25:28.827Z,88.65
2023-10-26T19:27:56.558Z,88.68
2023-10-26T19:30:26.341Z,88.73
2023-10-26T19:32:58.618Z,88.63
2023-10-26T19:35:26.264Z,88.63
2023-10-26T19:37:55.496Z,88.61
2023-10-26T19:40:22.506Z,88.62
2023-10-26T19:42:49.252Z,88.71
2023-10-26T19:45:15.773Z,88.63
2023-10-26T19:47:42.340Z,88.77
2023-10-26T19:50:09.957Z,88.83
2023-10-26T19:52:37.034Z,89.01
2023-10-26T19:55:04.636Z,89.02
2023-10-26T19:57:31.526Z,89.35
2023-10-26T19:59:57.933Z,89.09
2023-10-26T20:02:24.492Z,89.03
2023-10-26T20:04:50.877Z,89.15
2023-10-26T20:07:17.409Z,89.09
2023-10-26T20:09:44.042Z,89.13
2023-10-26T20:12:10.688Z,88.75
2023-10-26T20:14:37.133Z,89.18
2023-10-26T20:17:03.719Z,89.09
2023-10-26T20:19:30.793Z,88.95
2023-10-26T20:21:57.820Z,89.09
2023-10-26T20:24:26.938Z,89.24
2023-10-26T20:26:54.728Z,89.23
2023-10-26T20:29:21.149Z,89.21
2023-10-26T20:31:47.624Z,89.00
2023-10-26T20:34:19.891Z,89.30
2023-10-26T20:36:47.465Z,89.28
2023-10-26T20:39:14.135Z,89.18
2023-10-26T20:41:44.683Z,89.25
2023-10-26T20:44:13.307Z,89.38
2023-10-26T20:46:39.849Z,89.31
2023-10-26T20:49:06.439Z,89.79
2023-10-26T20:51:34.503Z,89.64
2023-10-26T20:54:02.040Z,89.43
2023-10-26T20:56:28.402Z,89.44
2023-10-26T20:58:54.875Z,89.55
2023-10-26T21:01:21.332Z,89.20
2023-10-26T21:03:47.775Z,89.45
2023-10-26T21:06:15.091Z,89.62
2023-10-26T21:08:43.865Z,89.44
2023-10-26T21:11:18.200Z,89.61
2023-10-26T21:13:45.072Z,89.60
2023-10-26T21:16:11.785Z,89.72
2023-10-26T21:18:38.399Z,89.50
2023-10-26T21:21:08.417Z,89.79
2023-10-26T21:23:36.409Z,89.41
2023-10-26T21:26:12.953Z,89.60
2023-10-26T21:28:42.520Z,89.61
2023-10-26T21:31:08.973Z,89.58
2023-10-26T21:33:35.538Z,89.56
2023-10-26T21:36:05.382Z,89.36
2023-10-26T21:38:31.829Z,89.52
2023-10-26T21:41:03.233Z,89.42
2023-10-26T21:43:30.941Z,89.49
2023-10-26T21:45:57.577Z,89.34
2023-10-26T21:48:24.174Z,89.64
2023-10-26T21:50:50.718Z,89.72
2023-10-26T21:53:18.113Z,89.39
2023-10-26T21:55:44.618Z,89.05
2023-10-26T21:58:11.456Z,88.89
2023-10-26T22:00:38.047Z,89.65
2023-10-26T22:03:05.805Z,89.48
2023-10-26T22:05:32.589Z,89.41
2023-10-26T22:07:59.607Z,89.31
2023-10-26T22:10:26.073Z,89.70
2023-10-26T22:12:53.176Z,89.37
2023-10-26T22:15:19.745Z,89.47
2023-10-26T22:17:46.341Z,89.99
2023-10-26T22:20:12.841Z,89.61
2023-10-26T22:22:39.571Z,89.81
2023-10-26T22:25:07.488Z,89.73
2023-10-26T22:27:34.828Z,89.69
2023-10-26T22:30:01.370Z,89.54
2023-10-26T22:32:27.856Z,89.53
2023-10-26T22:34:54.396Z,89.41
2023-10-26T22:37:20.866Z,89.74
2023-10-26T22:39:48.218Z,89.59
2023-10-26T22:42:15.659Z,89.68
2023-10-26T22:44:42.594Z,89.73
2023-10-26T22:47:09.111Z,89.54
2023-10-26T22:49:35.625Z,89.38
2023-10-26T22:52:02.112Z,89.47
2023-10-26T22:54:28.599Z,89.41
2023-10-26T22:56:55.147Z,89.87
2023-10-26T22:59:21.856Z,89.65
2023-10-26T23:01:48.749Z,89.45
2023-10-26T23:04:15.676Z,89.63
2023-10-26T23:06:42.384Z,89.83
2023-10-26T23:09:10.066Z,89.95
2023-10-26T23:11:36.572Z,89.65
2023-10-26T23:14:03.167Z,89.63
2023-10-26T23:16:29.995Z,88.85
2023-10-26T23:18:56.969Z,89.52
2023-10-26T23:21:23.456Z,89.41
2023-10-26T23:23:49.871Z,89.43
2023-10-26T23:26:16.480Z,89.52
2023-10-26T23:28:42.950Z,89.36
2023-10-26T23:31:12.654Z,89.39
2023-10-26T23:33:39.316Z,89.31
2023-10-26T23:36:12.985Z,89.28
2023-10-26T23:38:39.985Z,89.84
2023-10-26T23:41:07.348Z,89.41
2023-10-26T23:43:33.905Z,89.52
2023-10-26T23:46:00.503Z,89.54
2023-10-26T23:48:27.055Z,89.36
2023-10-26T23:50:53.661Z,89.33
2023-10-26T23:53:20.827Z,89.72
2023-10-26T23:55:48.914Z,89.48
2023-10-26T23:58:15.647Z,89.70
